sensor_id;sensor_type;location;lat;lon;timestamp;pressure;altitude;pressure_sealevel;temperature;humidity
53679;BME280;40119;52.030;4.708;2023-01-31T14:41:49;102102.75;;;3.97;86.91
53679;BME280;40119;52.030;4.708;2023-01-31T14:44:12;102109.94;;;5.12;85.26
53679;BME280;40119;52.030;4.708;2023-01-31T14:46:42;102122.61;;;4.82;81.63
53679;BME280;40119;52.030;4.708;2023-01-31T14:55:20;102119.30;;;5.64;75.23
53679;BME280;40119;52.030;4.708;2023-01-31T14:58:17;102114.52;;;6.72;69.19
53679;BME280;40119;52.030;4.708;2023-01-31T15:06:46;102129.14;;;3.93;78.80
53679;BME280;40119;52.030;4.708;2023-01-31T15:21:38;102133.34;;;4.48;77.55
53679;BME280;40119;52.030;4.708;2023-01-31T15:23:22;102130.67;;;3.48;82.27
53679;BME280;40119;52.030;4.708;2023-01-31T15:25:32;102130.94;;;5.01;79.27
53679;BME280;40119;52.030;4.708;2023-01-31T15:27:40;102134.07;;;5.40;78.73
53679;BME280;40119;52.030;4.708;2023-01-31T15:29:51;102135.23;;;6.03;74.90
53679;BME280;40119;52.030;4.708;2023-01-31T15:32:05;102141.42;;;5.59;75.71
53679;BME280;40119;52.030;4.708;2023-01-31T15:34:19;102143.78;;;5.95;74.10
53679;BME280;40119;52.030;4.708;2023-01-31T15:36:31;102141.10;;;3.95;77.35
53679;BME280;40119;52.030;4.708;2023-01-31T15:38:40;102154.00;;;6.60;72.29
53679;BME280;40119;52.030;4.708;2023-01-31T15:41:36;102149.41;;;4.28;75.02
53679;BME280;40119;52.030;4.708;2023-01-31T15:43:41;102158.10;;;4.23;73.45
53679;BME280;40119;52.030;4.708;2023-01-31T15:45:45;102162.23;;;5.69;71.40
53679;BME280;40119;52.030;4.708;2023-01-31T15:48:21;102153.60;;;5.05;72.04
53679;BME280;40119;52.030;4.708;2023-01-31T15:50:33;102161.93;;;3.97;73.64
53679;BME280;40119;52.030;4.708;2023-01-31T15:52:38;102167.24;;;5.20;72.57
53679;BME280;40119;52.030;4.708;2023-01-31T15:54:51;102179.34;;;5.55;69.27
53679;BME280;40119;52.030;4.708;2023-01-31T15:56:57;102171.15;;;5.90;67.65
53679;BME280;40119;52.030;4.708;2023-01-31T15:59:12;102167.19;;;6.36;62.69
53679;BME280;40119;52.030;4.708;2023-01-31T16:01:21;102183.12;;;5.65;65.32
53679;BME280;40119;52.030;4.708;2023-01-31T16:03:33;102185.17;;;3.90;69.18
53679;BME280;40119;52.030;4.708;2023-01-31T16:05:58;102192.01;;;5.63;65.06
53679;BME280;40119;52.030;4.708;2023-01-31T16:08:18;102197.40;;;5.27;66.96
53679;BME280;40119;52.030;4.708;2023-01-31T16:10:26;102205.00;;;4.80;68.20
53679;BME280;40119;52.030;4.708;2023-01-31T16:12:33;102205.55;;;5.69;66.96
53679;BME280;40119;52.030;4.708;2023-01-31T16:15:37;102212.78;;;5.15;67.54
53679;BME280;40119;52.030;4.708;2023-01-31T16:17:45;102211.91;;;5.41;66.21
53679;BME280;40119;52.030;4.708;2023-01-31T16:19:56;102212.78;;;7.45;60.40
53679;BME280;40119;52.030;4.708;2023-01-31T16:27:55;102208.71;;;5.05;70.41
53679;BME280;40119;52.030;4.708;2023-01-31T16:30:19;102206.60;;;5.70;65.74
53679;BME280;40119;52.030;4.708;2023-01-31T16:32:28;102208.38;;;4.74;65.71
53679;BME280;40119;52.030;4.708;2023-01-31T16:34:37;102211.21;;;5.44;66.93
53679;BME280;40119;52.030;4.708;2023-01-31T16:36:56;102206.90;;;3.81;71.68
53679;BME280;40119;52.030;4.708;2023-01-31T16:39:04;102201.67;;;3.84;71.90
53679;BME280;40119;52.030;4.708;2023-01-31T16:41:11;102204.46;;;4.82;68.80
53679;BME280;40119;52.030;4.708;2023-01-31T16:43:33;102196.46;;;5.87;66.09
53679;BME280;40119;52.030;4.708;2023-01-31T16:45:49;102189.17;;;8.19;59.15
53679;BME280;40119;52.030;4.708;2023-01-31T16:47:54;102183.43;;;5.51;66.67
53679;BME280;40119;52.030;4.708;2023-01-31T16:50:31;102184.28;;;7.27;60.79
53679;BME280;40119;52.030;4.708;2023-01-31T16:52:36;102191.02;;;4.85;66.50
53679;BME280;40119;52.030;4.708;2023-01-31T16:54:43;102192.00;;;4.52;67.71
53679;BME280;40119;52.030;4.708;2023-01-31T16:57:05;102189.67;;;5.71;69.51
53679;BME280;40119;52.030;4.708;2023-01-31T16:59:38;102193.46;;;5.30;67.22
53679;BME280;40119;52.030;4.708;2023-01-31T17:01:54;102196.53;;;4.64;66.28
53679;BME280;40119;52.030;4.708;2023-01-31T17:04:16;102193.97;;;6.75;61.85
53679;BME280;40119;52.030;4.708;2023-01-31T17:06:21;102197.16;;;5.64;62.41
53679;BME280;40119;52.030;4.708;2023-01-31T17:08:25;102201.72;;;4.29;63.51
53679;BME280;40119;52.030;4.708;2023-01-31T17:10:32;102198.42;;;7.36;55.52
53679;BME280;40119;52.030;4.708;2023-01-31T17:12:38;102204.21;;;4.72;59.65
53679;BME280;40119;52.030;4.708;2023-01-31T17:25:23;102201.67;;;6.78;54.13
53679;BME280;40119;52.030;4.708;2023-01-31T17:27:35;102199.92;;;7.66;49.49
53679;BME280;40119;52.030;4.708;2023-01-31T17:29:48;102199.49;;;6.33;53.13
53679;BME280;40119;52.030;4.708;2023-01-31T17:31:57;102200.20;;;6.56;53.22
53679;BME280;40119;52.030;4.708;2023-01-31T17:34:01;102204.68;;;4.63;58.41
53679;BME280;40119;52.030;4.708;2023-01-31T17:36:08;102203.90;;;4.25;58.98
53679;BME280;40119;52.030;4.708;2023-01-31T17:38:13;102201.39;;;5.08;57.17
53679;BME280;40119;52.030;4.708;2023-01-31T17:40:23;102199.65;;;6.75;53.32
53679;BME280;40119;52.030;4.708;2023-01-31T17:49:45;102207.41;;;5.56;56.69
53679;BME280;40119;52.030;4.708;2023-01-31T17:51:55;102213.83;;;4.59;57.23
53679;BME280;40119;52.030;4.708;2023-01-31T17:54:00;102211.95;;;6.23;54.33
53679;BME280;40119;52.030;4.708;2023-01-31T17:56:06;102208.37;;;6.45;55.30
53679;BME280;40119;52.030;4.708;2023-01-31T17:58:19;102210.53;;;4.85;59.31
53679;BME280;40119;52.030;4.708;2023-01-31T18:00:50;102208.55;;;4.05;62.97
53679;BME280;40119;52.030;4.708;2023-01-31T18:03:02;102206.53;;;4.65;60.19
53679;BME280;40119;52.030;4.708;2023-01-31T18:06:00;102207.39;;;5.15;60.04
53679;BME280;40119;52.030;4.708;2023-01-31T18:08:22;102207.29;;;6.05;56.76
53679;BME280;40119;52.030;4.708;2023-01-31T18:10:29;102206.62;;;3.94;63.43
53679;BME280;40119;52.030;4.708;2023-01-31T18:12:53;102211.46;;;3.58;64.65
53679;BME280;40119;52.030;4.708;2023-01-31T18:15:10;102204.61;;;2.59;69.44
53679;BME280;40119;52.030;4.708;2023-01-31T18:17:46;102202.10;;;4.06;65.39
53679;BME280;40119;52.030;4.708;2023-01-31T18:20:50;102201.39;;;4.23;65.77
53679;BME280;40119;52.030;4.708;2023-01-31T18:22:56;102199.95;;;5.60;61.73
53679;BME280;40119;52.030;4.708;2023-01-31T18:27:19;102202.79;;;3.87;65.97
53679;BME280;40119;52.030;4.708;2023-01-31T18:29:28;102200.68;;;2.68;68.76
53679;BME280;40119;52.030;4.708;2023-01-31T18:32:11;102197.09;;;4.48;62.18
53679;BME280;40119;52.030;4.708;2023-01-31T18:34:23;102203.58;;;4.50;62.38
53679;BME280;40119;52.030;4.708;2023-01-31T18:36:33;102205.19;;;6.10;57.30
53679;BME280;40119;52.030;4.708;2023-01-31T18:51:25;102219.26;;;3.42;61.12
53679;BME280;40119;52.030;4.708;2023-01-31T18:53:31;102221.62;;;2.96;59.29
53679;BME280;40119;52.030;4.708;2023-01-31T19:22:58;102212.48;;;3.39;57.64
53679;BME280;40119;52.030;4.708;2023-01-31T19:25:08;102208.78;;;4.38;55.21
53679;BME280;40119;52.030;4.708;2023-01-31T20:00:10;102175.82;;;3.32;56.13
53679;BME280;40119;52.030;4.708;2023-01-31T20:02:18;102177.97;;;2.96;56.38
53679;BME280;40119;52.030;4.708;2023-01-31T20:04:23;102178.17;;;4.02;53.65
53679;BME280;40119;52.030;4.708;2023-01-31T20:06:31;102179.90;;;4.78;49.85
53679;BME280;40119;52.030;4.708;2023-01-31T20:08:41;102183.08;;;4.20;51.31
53679;BME280;40119;52.030;4.708;2023-01-31T20:10:46;102183.90;;;5.63;49.50
53679;BME280;40119;52.030;4.708;2023-01-31T20:12:50;102182.76;;;3.79;51.20
53679;BME280;40119;52.030;4.708;2023-01-31T20:14:57;102182.72;;;5.51;48.42
53679;BME280;40119;52.030;4.708;2023-01-31T20:17:01;102177.96;;;6.95;44.87
53679;BME280;40119;52.030;4.708;2023-01-31T20:19:06;102184.02;;;5.59;46.71
53679;BME280;40119;52.030;4.708;2023-01-31T20:21:13;102183.38;;;6.92;43.67
53679;BME280;40119;52.030;4.708;2023-01-31T20:23:19;102185.55;;;4.30;46.98
53679;BME280;40119;52.030;4.708;2023-01-31T20:25:24;102181.81;;;5.85;46.90
53679;BME280;40119;52.030;4.708;2023-01-31T20:27:28;102182.11;;;4.69;46.59
53679;BME280;40119;52.030;4.708;2023-01-31T20:29:32;102177.76;;;3.97;50.03
53679;BME280;40119;52.030;4.708;2023-01-31T20:31:37;102168.75;;;8.06;43.25
53679;BME280;40119;52.030;4.708;2023-01-31T20:33:51;102175.01;;;4.94;47.81
53679;BME280;40119;52.030;4.708;2023-01-31T20:36:05;102182.02;;;5.87;46.58
53679;BME280;40119;52.030;4.708;2023-01-31T20:38:11;102174.02;;;7.54;44.34
53679;BME280;40119;52.030;4.708;2023-01-31T20:40:23;102176.60;;;4.44;49.91
53679;BME280;40119;52.030;4.708;2023-01-31T20:42:30;102176.53;;;5.64;48.26
53679;BME280;40119;52.030;4.708;2023-01-31T20:45:07;102165.99;;;6.78;46.15
53679;BME280;40119;52.030;4.708;2023-01-31T20:47:11;102173.30;;;5.34;49.11
53679;BME280;40119;52.030;4.708;2023-01-31T20:49:21;102168.11;;;6.75;45.18
53679;BME280;40119;52.030;4.708;2023-01-31T20:51:26;102173.69;;;3.81;50.95
53679;BME280;40119;52.030;4.708;2023-01-31T20:53:34;102173.48;;;1.67;57.43
53679;BME280;40119;52.030;4.708;2023-01-31T20:55:45;102170.17;;;4.02;52.65
53679;BME280;40119;52.030;4.708;2023-01-31T20:57:57;102168.47;;;4.81;52.03
53679;BME280;40119;52.030;4.708;2023-01-31T21:00:03;102160.22;;;5.73;48.23
53679;BME280;40119;52.030;4.708;2023-01-31T21:02:11;102154.13;;;5.15;49.32
53679;BME280;40119;52.030;4.708;2023-01-31T21:04:20;102151.16;;;4.91;50.91
53679;BME280;40119;52.030;4.708;2023-01-31T21:06:41;102155.96;;;1.54;60.37
53679;BME280;40119;52.030;4.708;2023-01-31T21:08:45;102150.78;;;2.26;58.80
53679;BME280;40119;52.030;4.708;2023-01-31T21:10:51;102150.85;;;5.57;53.45
53679;BME280;40119;52.030;4.708;2023-01-31T21:12:57;102152.70;;;3.81;55.52
53679;BME280;40119;52.030;4.708;2023-01-31T21:15:03;102155.81;;;1.87;61.16
53679;BME280;40119;52.030;4.708;2023-01-31T21:17:07;102141.75;;;3.13;57.43
53679;BME280;40119;52.030;4.708;2023-01-31T21:19:12;102139.93;;;2.52;59.40
53679;BME280;40119;52.030;4.708;2023-01-31T21:21:23;102138.62;;;4.76;52.72
53679;BME280;40119;52.030;4.708;2023-01-31T21:23:27;102141.64;;;4.08;53.76
53679;BME280;40119;52.030;4.708;2023-01-31T21:25:32;102134.17;;;3.70;56.23
53679;BME280;40119;52.030;4.708;2023-01-31T21:27:36;102133.67;;;4.39;52.53
53679;BME280;40119;52.030;4.708;2023-01-31T21:29:41;102127.55;;;3.54;54.92
53679;BME280;40119;52.030;4.708;2023-01-31T21:31:45;102131.19;;;2.28;57.08
53679;BME280;40119;52.030;4.708;2023-01-31T21:33:51;102129.54;;;2.47;57.29
53679;BME280;40119;52.030;4.708;2023-01-31T21:35:56;102127.46;;;2.57;56.46
53679;BME280;40119;52.030;4.708;2023-01-31T21:38:00;102126.29;;;1.88;57.61
53679;BME280;40119;52.030;4.708;2023-01-31T21:40:06;102123.61;;;2.71;56.91
53679;BME280;40119;52.030;4.708;2023-01-31T21:42:10;102129.86;;;1.26;60.96
53679;BME280;40119;52.030;4.708;2023-01-31T21:44:15;102124.65;;;4.73;53.67
53679;BME280;40119;52.030;4.708;2023-01-31T21:46:20;102121.46;;;3.31;54.56
53679;BME280;40119;52.030;4.708;2023-01-31T21:48:26;102127.87;;;3.92;53.60
53679;BME280;40119;52.030;4.708;2023-01-31T21:50:30;102126.85;;;3.09;54.70
53679;BME280;40119;52.030;4.708;2023-01-31T21:52:34;102133.01;;;4.29;51.63
53679;BME280;40119;52.030;4.708;2023-01-31T21:54:39;102140.77;;;0.82;60.64
53679;BME280;40119;52.030;4.708;2023-01-31T21:56:43;102130.38;;;2.07;58.78
53679;BME280;40119;52.030;4.708;2023-01-31T21:58:48;102120.44;;;2.40;57.06
53679;BME280;40119;52.030;4.708;2023-01-31T22:00:52;102110.52;;;5.53;49.53
53679;BME280;40119;52.030;4.708;2023-01-31T22:02:57;102107.36;;;4.43;51.52
53679;BME280;40119;52.030;4.708;2023-01-31T22:05:02;102112.18;;;3.29;50.67
53679;BME280;40119;52.030;4.708;2023-01-31T22:07:08;102107.93;;;3.38;52.46
53679;BME280;40119;52.030;4.708;2023-01-31T22:09:13;102106.82;;;2.52;54.84
53679;BME280;40119;52.030;4.708;2023-01-31T22:11:19;102117.39;;;1.09;59.48
53679;BME280;40119;52.030;4.708;2023-01-31T22:13:23;102114.77;;;2.42;56.22
53679;BME280;40119;52.030;4.708;2023-01-31T22:15:28;102118.83;;;2.41;58.09
53679;BME280;40119;52.030;4.708;2023-01-31T22:17:32;102113.66;;;2.26;58.83
53679;BME280;40119;52.030;4.708;2023-01-31T22:19:37;102107.47;;;2.25;60.64
53679;BME280;40119;52.030;4.708;2023-01-31T22:21:42;102106.23;;;4.87;53.55
53679;BME280;40119;52.030;4.708;2023-01-31T22:23:48;102104.04;;;2.36;58.23
53679;BME280;40119;52.030;4.708;2023-01-31T22:25:55;102106.10;;;2.66;58.41
53679;BME280;40119;52.030;4.708;2023-01-31T22:28:00;102113.39;;;3.77;55.91
53679;BME280;40119;52.030;4.708;2023-01-31T22:30:08;102112.85;;;2.01;62.84
53679;BME280;40119;52.030;4.708;2023-01-31T22:32:12;102113.69;;;4.56;56.24
53679;BME280;40119;52.030;4.708;2023-01-31T22:34:19;102112.91;;;2.45;58.15
53679;BME280;40119;52.030;4.708;2023-01-31T22:36:23;102119.94;;;1.76;63.47
53679;BME280;40119;52.030;4.708;2023-01-31T22:38:27;102126.64;;;0.49;67.40
53679;BME280;40119;52.030;4.708;2023-01-31T22:40:32;102124.11;;;-0.28;70.20
53679;BME280;40119;52.030;4.708;2023-01-31T22:42:42;102120.74;;;0.71;66.89
53679;BME280;40119;52.030;4.708;2023-01-31T22:44:46;102121.81;;;1.75;64.68
53679;BME280;40119;52.030;4.708;2023-01-31T22:46:51;102118.49;;;3.30;61.06
53679;BME280;40119;52.030;4.708;2023-01-31T22:48:56;102121.23;;;1.53;63.17
53679;BME280;40119;52.030;4.708;2023-01-31T22:51:04;102130.65;;;0.77;66.76
53679;BME280;40119;52.030;4.708;2023-01-31T22:53:10;102124.26;;;3.76;60.22
53679;BME280;40119;52.030;4.708;2023-01-31T22:55:16;102125.89;;;1.13;64.80
53679;BME280;40119;52.030;4.708;2023-01-31T22:57:20;102125.47;;;1.23;63.43
53679;BME280;40119;52.030;4.708;2023-01-31T22:59:25;102125.78;;;1.90;62.42
53679;BME280;40119;52.030;4.708;2023-01-31T23:01:36;102125.49;;;3.04;60.35
53679;BME280;40119;52.030;4.708;2023-01-31T23:03:44;102113.78;;;3.15;59.01
53679;BME280;40119;52.030;4.708;2023-01-31T23:05:49;102121.73;;;1.73;63.72
53679;BME280;40119;52.030;4.708;2023-01-31T23:07:55;102114.60;;;3.84;60.69
53679;BME280;40119;52.030;4.708;2023-01-31T23:10:00;102114.52;;;3.09;59.75
53679;BME280;40119;52.030;4.708;2023-01-31T23:12:05;102115.18;;;3.99;57.89
53679;BME280;40119;52.030;4.708;2023-01-31T23:14:09;102115.50;;;3.71;57.88
53679;BME280;40119;52.030;4.708;2023-01-31T23:16:19;102117.61;;;2.34;60.79
53679;BME280;40119;52.030;4.708;2023-01-31T23:18:24;102114.92;;;3.65;59.08
53679;BME280;40119;52.030;4.708;2023-01-31T23:20:29;102123.69;;;0.77;65.06
53679;BME280;40119;52.030;4.708;2023-01-31T23:22:35;102118.18;;;1.09;68.37
53679;BME280;40119;52.030;4.708;2023-01-31T23:24:40;102118.84;;;0.87;68.95
53679;BME280;40119;52.030;4.708;2023-01-31T23:26:44;102119.60;;;2.32;66.77
53679;BME280;40119;52.030;4.708;2023-01-31T23:28:48;102121.74;;;0.24;69.62
53679;BME280;40119;52.030;4.708;2023-01-31T23:30:54;102108.88;;;2.77;67.19
53679;BME280;40119;52.030;4.708;2023-01-31T23:33:09;102106.84;;;2.90;65.11
53679;BME280;40119;52.030;4.708;2023-01-31T23:35:14;102109.35;;;1.57;65.45
53679;BME280;40119;52.030;4.708;2023-01-31T23:37:24;102116.25;;;1.96;66.10
53679;BME280;40119;52.030;4.708;2023-01-31T23:39:28;102115.94;;;2.77;62.00
53679;BME280;40119;52.030;4.708;2023-01-31T23:41:32;102099.08;;;3.26;61.89
53679;BME280;40119;52.030;4.708;2023-01-31T23:43:37;102090.11;;;3.03;63.53
53679;BME280;40119;52.030;4.708;2023-01-31T23:45:41;102079.09;;;3.90;60.39
53679;BME280;40119;52.030;4.708;2023-01-31T23:47:47;102080.48;;;4.01;59.49
53679;BME280;40119;52.030;4.708;2023-01-31T23:49:52;102064.47;;;2.20;64.67
53679;BME280;40119;52.030;4.708;2023-01-31T23:51:56;102061.04;;;2.50;65.81
53679;BME280;40119;52.030;4.708;2023-01-31T23:54:02;102068.09;;;2.28;63.21
53679;BME280;40119;52.030;4.708;2023-01-31T23:56:12;102061.05;;;2.64;62.60
53679;BME280;40119;52.030;4.708;2023-01-31T23:58:21;102060.93;;;2.35;62.65
